Flag for USA

Past Weather in 29°43'49.0"N, 95°26'26.4"W, USA — Yesterday and Last 2 Weeks

Currently: 62 °F. Mostly cloudy. (Weather station: Houston Hobby Airport, USA). See more current weather

Past Weather in 29°43'49.0"N, 95°26'26.4"W — Graph

°F

29°43'49.0"N, 95°26'26.4"W Temperature Yesterday

Maximum temperature yesterday: 76 °F (at 11:53 am)
Minimum temperature yesterday: 66 °F (at 9:53 pm)
Average temperature yesterday: 70 °F

High & Low Weather Summary for the Past Weeks

 TemperatureHumidityPressure
High80 °F (Jan 17, 1:53 pm)97% (Jan 17, 3:06 am)30.46 "Hg (Jan 17, 3:06 am)
Low39 °F (Jan 26, 5:53 am)19% (Jan 19, 2:53 pm)29.56 "Hg (Jan 24, 1:26 pm)
Average59 °F71%30.03 "Hg
* Reported Jan 14 10:53 pm — Jan 29 10:53 pm, 29°43'49.0"N, 95°26'26.4"W. Weather by CustomWeather, © 2023

Note: Actual official high and low records may vary slightly from our data, if they occured in-between our weather recording intervals... More about our weather records

29°43'49.0"N, 95°26'26.4"W Weather History for the Previous 24 Hours

Scroll right to see more
 ConditionsComfort  
Time TempWeatherWind HumidityBarometerVisibility
10:53 pm
Sun, Jan 29
66 °FFog.13 mph87%30.07 "Hg5 mi
10:39 pm66 °FFog.9 mph90%30.06 "Hg5 mi
9:53 pm66 °FMostly cloudy.9 mph90%30.07 "Hg9 mi
8:53 pm67 °FMostly cloudy.5 mph87%30.04 "Hg10 mi
7:53 pm67 °FPartly cloudy.7 mph87%30.02 "Hg10 mi
6:53 pm68 °FOvercast.8 mph84%30.01 "Hg10 mi
4:53 pm73 °FCloudy.13 mph84%29.95 "Hg9 mi
3:53 pm76 °FLight rain. Cloudy.13 mph74%29.93 "Hg10 mi
2:53 pm76 °FMostly cloudy.15 mph77%29.93 "Hg10 mi
1:53 pm76 °FMostly cloudy.20 mph74%29.94 "Hg10 mi
12:53 pm76 °FCloudy.20 mph74%29.96 "Hg9 mi
11:53 am76 °FPartly sunny.18 mph80%29.98 "Hg10 mi
11:00 am74 °FMostly cloudy.13 mph88%30.00 "Hg9 mi
9:53 am72 °FMostly cloudy.12 mph91%30.03 "Hg8 mi
9:03 am71 °FMostly cloudy.15 mph93%30.00 "Hg8 mi
7:53 am69 °FLight rain. Cloudy.12 mph90%29.99 "Hg9 mi
6:53 am67 °FMostly cloudy.10 mph97%29.98 "Hg7 mi
5:53 am67 °FLight rain. Mostly cloudy.6 mph97%29.99 "Hg8 mi
4:53 am67 °FMostly cloudy.7 mph93%30.01 "Hg8 mi
3:53 am67 °FMostly cloudy.8 mph90%30.01 "Hg8 mi
2:53 am67 °FMostly cloudy.8 mph93%30.01 "Hg9 mi
2:29 am67 °FMostly cloudy.6 mph93%30.01 "Hg8 mi
1:53 am68 °FLight rain. Mostly cloudy.10 mph90%30.04 "Hg8 mi
12:53 am68 °FOvercast.12 mph90%30.05 "Hg9 mi
Weather by CustomWeather, © 2023

See weather overview